Kezdőlap
METAR-TAF:

METAR-TAF

Repülőterek :

Debreceni nemzetközi repülőtér

Debrecen, Magyarország

földrajzi szélesség: 47-29N, földrajzi hosszúság: 021-36E, magasság: 108 m

Jelenlegi meteorológiai megfigyelések

A jelentés 46 perccel ezelõtt készült, 20:45 UTC
Szélcsend
Hőmérséklet 18°C
Páratartalom 88%
Légköri nyomás 1020 hPa
Látótávolság: 8000 m

METAR: LHDC 272045Z 00000KT 8000 NSC 18/16 Q1020 NOSIG

Idő: 23:31 (21:31 UTC)


TAF: hiányzik

Meteorológiai megfigyelések és előrejelzések több, mint 4000 repülőtéren (METAR és TAF jelentéseket).

A térképen piros és sárga pontok jelzik az elérhető meteorológiai állomásokat.

Mozgassa az egeret a pont fölött, hogy megjelenjen az állomás neve.

Azután kattintson az időjárási megfigyelések és előrejelzések megtekintéséhez.

A térkép megváltoztatása: kattintson a fekete keresztel jelölt zöld gombra ráközelítéshez, a vonallal jelölt zöld gombra távolításhoz, vagy a zöld nyilakra a szomszédos térképek eléréséhez.


METAR-TAF: